CPX251 Details

Departure: Ted Stevens Anchorage International Airport (PANC)
Arrival: Huntsville International Airport (KHSV) at N/A
Route: TED YESKA NCA13 YXY J515 YYE J537 YPE J601 XD YWV J475 VLN J483 MOT ABR Q19 DSM J45 IRK FAM J151 VUZ
Notes:


Current Weather Information
PANC 250453Z 00000KT 10SM FEW060 SCT200 16/09 A2976 RMK AO2 SLP079 T01560094
KHSV 250453Z 25003KT 10SM FEW044 OVC200 22/22 A3002 RMK AO2 RAB0356E24 SLP157 P0000 T02220222